Time;durP1;ratioP1;P1;durP2;ratioP2;P2;SDS_P1;SDS_P2;PMS_P1;PMS_P2;Temp;Humidity;BMP_temperature;BMP_pressure;BME280_temperature;BME280_humidity;BME280_pressure;Samples;Min_cycle;Max_cycle;Signal;HPM_P1;HPM_P2
2023/08/28 00:00:27;;;;;;;;;;;16.10;84.50;;;;;;5068517;28;19928;-75
2023/08/28 00:02:56;;;;;;;;;;;16.00;84.70;;;;;;5066770;28;20368;-73
2023/08/28 00:05:23;;;;;;;;;;;16.00;84.40;;;;;;5066342;28;19928;-72
2023/08/28 00:07:50;;;;;;;;;;;16.00;84.50;;;;;;5068902;28;19924;-75
2023/08/28 00:10:17;;;;;;;;;;;15.90;84.40;;;;;;5067718;28;19928;-72
2023/08/28 00:12:45;;;;;;;;;;;15.90;84.30;;;;;;5067253;28;19928;-74
2023/08/28 00:15:12;;;;;;;;;;;15.80;84.30;;;;;;5068715;28;20414;-73
2023/08/28 00:17:39;;;;;;;;;;;15.80;84.20;;;;;;4985235;28;19954;-73
2023/08/28 00:20:08;;;;;;;;;;;15.70;84.10;;;;;;4987479;28;20408;-73
2023/08/28 00:22:36;;;;;;;;;;;15.70;84.20;;;;;;4986336;28;19930;-70
2023/08/28 00:25:03;;;;;;;;;;;15.70;84.10;;;;;;5013746;28;20055;-71
2023/08/28 00:27:30;;;;;;;;;;;15.70;84.00;;;;;;4974399;28;19930;-70
2023/08/28 00:29:57;;;;;;;;;;;15.60;84.10;;;;;;4966905;28;19930;-70
2023/08/28 00:32:25;;;;;;;;;;;15.60;84.10;;;;;;4965990;28;19937;-70
2023/08/28 00:34:52;;;;;;;;;;;15.70;84.00;;;;;;4966507;28;19926;-69
2023/08/28 00:37:21;;;;;;;;;;;15.60;84.00;;;;;;4967109;28;19927;-71
2023/08/28 00:39:48;;;;;;;;;;;15.60;84.00;;;;;;4982148;28;19937;-70
2023/08/28 00:42:15;;;;;;;;;;;15.60;83.90;;;;;;4956187;28;19933;-69
2023/08/28 00:44:42;;;;;;;;;;;15.60;84.20;;;;;;4964435;28;20903;-71
2023/08/28 00:47:10;;;;;;;;;;;15.60;84.40;;;;;;5050222;28;20429;-70
2023/08/28 00:49:37;;;;;;;;;;;15.60;84.50;;;;;;4987542;28;19930;-71
2023/08/28 00:52:05;;;;;;;;;;;15.50;84.70;;;;;;4988891;28;19933;-70
2023/08/28 00:54:34;;;;;;;;;;;15.60;84.60;;;;;;4971708;28;19936;-70
2023/08/28 00:57:03;;;;;;;;;;;15.60;84.80;;;;;;4988727;28;20384;-71
2023/08/28 00:59:30;;;;;;;;;;;15.60;84.90;;;;;;4968697;28;19961;-71
2023/08/28 01:01:57;;;;;;;;;;;15.60;85.10;;;;;;5004571;28;19975;-71
2023/08/28 01:04:25;;;;;;;;;;;15.60;85.10;;;;;;4987938;28;20023;-70
2023/08/28 01:06:54;;;;;;;;;;;15.60;85.00;;;;;;4988585;28;19930;-69
2023/08/28 01:09:26;;;;;;;;;;;15.60;85.00;;;;;;4988791;28;20033;-70
2023/08/28 01:12:01;;;;;;;;;;;15.70;85.00;;;;;;4988753;28;19929;-70
2023/08/28 01:14:29;;;;;;;;;;;15.60;85.10;;;;;;4971501;28;19933;-71
2023/08/28 01:16:57;;;;;;;;;;;15.70;85.00;;;;;;4972316;28;19932;-70
2023/08/28 01:19:29;;;;;;;;;;;15.60;85.00;;;;;;4978963;28;19938;-69
2023/08/28 01:22:00;;;;;;;;;;;15.60;85.20;;;;;;4990276;28;20017;-69
2023/08/28 01:24:29;;;;;;;;;;;15.60;85.00;;;;;;4987812;28;19930;-70
2023/08/28 01:26:58;;;;;;;;;;;15.50;85.20;;;;;;4972323;28;19977;-70
2023/08/28 01:29:27;;;;;;;;;;;15.50;85.40;;;;;;4988771;28;20003;-70
2023/08/28 01:31:54;;;;;;;;;;;15.40;85.60;;;;;;4988706;28;20407;-69
2023/08/28 01:34:23;;;;;;;;;;;15.40;85.80;;;;;;4986674;28;20033;-69
2023/08/28 01:36:54;;;;;;;;;;;15.40;85.70;;;;;;4988604;28;19925;-68
2023/08/28 01:39:23;;;;;;;;;;;15.50;85.60;;;;;;4988727;28;20568;-69
2023/08/28 01:41:54;;;;;;;;;;;15.60;85.40;;;;;;4987498;28;19963;-68
2023/08/28 01:44:23;;;;;;;;;;;15.60;85.50;;;;;;4986933;28;19930;-68
2023/08/28 01:46:50;;;;;;;;;;;15.60;85.40;;;;;;4971465;28;19997;-68
2023/08/28 01:49:17;;;;;;;;;;;15.60;85.30;;;;;;4987358;28;20043;-69
2023/08/28 01:51:44;;;;;;;;;;;15.60;85.20;;;;;;4988106;28;19932;-69
2023/08/28 01:54:12;;;;;;;;;;;15.60;85.10;;;;;;4983556;28;20016;-68
2023/08/28 01:56:39;;;;;;;;;;;15.60;84.90;;;;;;4962893;28;19933;-69
2023/08/28 01:59:06;;;;;;;;;;;15.50;85.10;;;;;;4971192;28;19932;-68
2023/08/28 02:01:35;;;;;;;;;;;15.50;85.20;;;;;;4987145;28;20857;-69
2023/08/28 02:04:02;;;;;;;;;;;15.40;85.20;;;;;;4988357;28;19926;-69
2023/08/28 02:06:30;;;;;;;;;;;15.50;85.00;;;;;;4966961;28;19926;-68
2023/08/28 02:08:57;;;;;;;;;;;15.40;85.20;;;;;;5011168;28;20343;-69
2023/08/28 02:11:27;;;;;;;;;;;15.40;85.30;;;;;;4974001;28;19930;-68
2023/08/28 02:13:54;;;;;;;;;;;15.40;85.50;;;;;;4967672;28;19952;-68
2023/08/28 02:16:22;;;;;;;;;;;15.40;85.60;;;;;;4984067;28;19934;-69
2023/08/28 02:18:50;;;;;;;;;;;15.40;85.70;;;;;;4967665;28;19937;-68
2023/08/28 02:21:18;;;;;;;;;;;15.50;85.60;;;;;;4967777;28;19926;-68
2023/08/28 02:23:46;;;;;;;;;;;15.60;85.60;;;;;;4963210;28;20017;-68
2023/08/28 02:26:13;;;;;;;;;;;15.60;85.50;;;;;;4969360;28;19936;-68
2023/08/28 02:28:41;;;;;;;;;;;15.60;85.30;;;;;;4958371;28;19934;-70
2023/08/28 02:31:08;;;;;;;;;;;15.50;85.40;;;;;;4967320;28;20381;-69
2023/08/28 02:33:35;;;;;;;;;;;15.40;85.50;;;;;;4978887;28;19933;-69
2023/08/28 02:36:04;;;;;;;;;;;15.40;85.50;;;;;;4968136;28;19938;-69
2023/08/28 02:38:31;;;;;;;;;;;15.30;85.80;;;;;;5001090;28;19989;-68
2023/08/28 02:41:03;;;;;;;;;;;15.30;85.60;;;;;;4959392;28;19961;-68
2023/08/28 02:43:30;;;;;;;;;;;15.20;85.60;;;;;;4967417;28;19932;-69
2023/08/28 02:45:58;;;;;;;;;;;15.20;85.70;;;;;;4968219;28;19937;-69
2023/08/28 02:48:28;;;;;;;;;;;15.30;85.70;;;;;;4966029;28;19941;-70
2023/08/28 02:50:56;;;;;;;;;;;15.30;85.60;;;;;;4982565;28;19938;-69
2023/08/28 02:53:24;;;;;;;;;;;15.30;85.50;;;;;;4967657;28;19926;-69
2023/08/28 02:56:12;;;;;;;;;;;15.30;85.30;;;;;;4968852;28;19981;-69
2023/08/28 02:58:39;;;;;;;;;;;15.30;85.40;;;;;;5037486;28;19947;-70
2023/08/28 03:01:10;;;;;;;;;;;15.20;85.50;;;;;;4977564;28;20018;-70
2023/08/28 03:03:37;;;;;;;;;;;15.30;85.50;;;;;;4967883;28;19937;-69
2023/08/28 03:06:05;;;;;;;;;;;15.20;85.50;;;;;;4967277;28;19934;-71
2023/08/28 03:08:33;;;;;;;;;;;15.20;85.60;;;;;;4986767;28;19961;-70
2023/08/28 03:11:01;;;;;;;;;;;15.20;85.50;;;;;;4983425;28;20430;-69
2023/08/28 03:13:28;;;;;;;;;;;15.10;85.80;;;;;;4985390;28;19932;-70
2023/08/28 03:15:55;;;;;;;;;;;15.10;86.10;;;;;;4986839;28;19933;-70
2023/08/28 03:18:22;;;;;;;;;;;15.10;86.10;;;;;;4986687;28;19969;-70
2023/08/28 03:20:50;;;;;;;;;;;15.10;86.20;;;;;;5000668;28;19930;-69
2023/08/28 03:23:17;;;;;;;;;;;15.20;86.20;;;;;;4987625;28;19936;-69
2023/08/28 03:25:46;;;;;;;;;;;15.20;86.30;;;;;;4986037;28;19930;-71
2023/08/28 03:28:13;;;;;;;;;;;15.20;86.30;;;;;;4988261;28;19926;-70
2023/08/28 03:30:40;;;;;;;;;;;15.20;86.30;;;;;;4969430;28;20020;-70
2023/08/28 03:33:08;;;;;;;;;;;15.20;86.40;;;;;;4985148;28;20610;-70
2023/08/28 03:35:35;;;;;;;;;;;15.20;86.30;;;;;;4985003;28;19927;-69
2023/08/28 03:38:02;;;;;;;;;;;15.20;86.30;;;;;;4986503;28;19926;-69
2023/08/28 03:40:29;;;;;;;;;;;15.20;86.40;;;;;;4977070;28;20377;-70
2023/08/28 03:42:58;;;;;;;;;;;15.20;86.40;;;;;;4987794;28;20328;-69
2023/08/28 03:45:25;;;;;;;;;;;15.20;86.40;;;;;;4977238;28;19930;-69
2023/08/28 03:47:52;;;;;;;;;;;15.10;86.40;;;;;;4971485;28;19932;-70
2023/08/28 03:50:20;;;;;;;;;;;15.10;86.10;;;;;;4982212;28;19933;-70
2023/08/28 03:52:47;;;;;;;;;;;15.10;86.30;;;;;;5068188;28;19932;-68
2023/08/28 03:55:14;;;;;;;;;;;15.10;86.30;;;;;;4996487;28;20378;-69
2023/08/28 03:57:41;;;;;;;;;;;15.10;86.50;;;;;;4966589;28;19930;-68
2023/08/28 04:00:13;;;;;;;;;;;15.10;86.40;;;;;;4967166;28;19930;-69
2023/08/28 04:02:43;;;;;;;;;;;15.10;86.30;;;;;;4965909;28;19927;-69
2023/08/28 04:05:11;;;;;;;;;;;15.10;86.20;;;;;;4967243;28;20279;-69
2023/08/28 04:07:39;;;;;;;;;;;15.10;86.30;;;;;;4978037;28;19932;-68
2023/08/28 04:10:06;;;;;;;;;;;15.10;86.20;;;;;;4967673;28;20015;-68
2023/08/28 04:12:34;;;;;;;;;;;15.10;86.10;;;;;;4997316;28;20426;-68
2023/08/28 04:15:02;;;;;;;;;;;15.10;86.00;;;;;;4986237;28;19930;-69
2023/08/28 04:17:32;;;;;;;;;;;15.00;85.40;;;;;;4968535;28;19926;-69
2023/08/28 04:20:08;;;;;;;;;;;15.00;85.60;;;;;;5000900;28;19938;-68
2023/08/28 04:22:36;;;;;;;;;;;15.00;85.60;;;;;;4959535;28;19926;-69
2023/08/28 04:25:03;;;;;;;;;;;14.90;85.30;;;;;;4971462;28;20311;-69
2023/08/28 04:27:43;;;;;;;;;;;14.90;85.30;;;;;;4974185;28;19926;-68
2023/08/28 04:30:12;;;;;;;;;;;15.00;85.10;;;;;;5002845;28;19929;-68
2023/08/28 04:32:40;;;;;;;;;;;15.00;85.10;;;;;;4980745;28;20401;-68
2023/08/28 04:35:08;;;;;;;;;;;15.10;85.00;;;;;;4989521;28;20017;-69
2023/08/28 04:37:35;;;;;;;;;;;15.00;85.00;;;;;;4987770;28;19929;-69
2023/08/28 04:40:03;;;;;;;;;;;14.90;85.20;;;;;;4989312;28;20343;-69
2023/08/28 04:42:31;;;;;;;;;;;14.90;85.30;;;;;;4968376;28;19930;-69
2023/08/28 04:44:58;;;;;;;;;;;14.90;85.50;;;;;;4974263;28;19950;-69
2023/08/28 04:47:26;;;;;;;;;;;14.90;85.30;;;;;;5003537;28;19929;-69
2023/08/28 04:49:56;;;;;;;;;;;14.90;85.40;;;;;;4969034;28;19938;-69
2023/08/28 04:52:23;;;;;;;;;;;14.90;85.30;;;;;;5057184;28;20340;-68
2023/08/28 04:54:50;;;;;;;;;;;14.90;85.40;;;;;;4988847;28;19934;-69
2023/08/28 04:57:17;;;;;;;;;;;14.90;85.50;;;;;;4975671;28;20491;-67
2023/08/28 04:59:45;;;;;;;;;;;14.90;85.50;;;;;;4989145;28;19926;-68
2023/08/28 05:02:12;;;;;;;;;;;14.90;85.50;;;;;;4980888;28;19979;-69
2023/08/28 05:04:39;;;;;;;;;;;14.90;85.40;;;;;;4978121;28;19925;-69
2023/08/28 05:07:08;;;;;;;;;;;14.90;85.40;;;;;;4986627;28;19926;-68
2023/08/28 05:09:35;;;;;;;;;;;14.90;85.10;;;;;;5003176;28;19969;-69
2023/08/28 05:12:02;;;;;;;;;;;14.90;85.20;;;;;;4989903;28;19929;-68
2023/08/28 05:14:29;;;;;;;;;;;15.00;85.30;;;;;;4989525;28;19936;-70
2023/08/28 05:16:56;;;;;;;;;;;15.00;85.10;;;;;;5001843;28;19941;-68
2023/08/28 05:19:24;;;;;;;;;;;15.00;85.20;;;;;;4986837;28;19937;-70
2023/08/28 05:21:51;;;;;;;;;;;15.10;85.10;;;;;;4972060;28;19926;-69
2023/08/28 05:24:21;;;;;;;;;;;15.00;85.10;;;;;;4970669;28;19929;-69
2023/08/28 05:26:49;;;;;;;;;;;14.90;85.20;;;;;;4988390;28;19930;-68
2023/08/28 05:29:16;;;;;;;;;;;14.90;85.00;;;;;;4987343;28;19984;-69
2023/08/28 05:31:43;;;;;;;;;;;14.90;85.00;;;;;;5003082;28;19926;-68
2023/08/28 05:34:11;;;;;;;;;;;14.90;84.80;;;;;;4970927;28;19975;-68
2023/08/28 05:36:39;;;;;;;;;;;14.90;85.00;;;;;;4962730;28;19936;-67
2023/08/28 05:39:06;;;;;;;;;;;14.80;85.00;;;;;;4990178;28;19948;-68
2023/08/28 05:41:39;;;;;;;;;;;14.90;84.90;;;;;;4986852;28;19997;-69
2023/08/28 05:44:06;;;;;;;;;;;14.90;84.90;;;;;;4990869;28;19945;-68
2023/08/28 05:46:34;;;;;;;;;;;14.90;85.10;;;;;;4985531;28;20112;-68
2023/08/28 05:49:02;;;;;;;;;;;14.90;85.30;;;;;;4972037;28;19925;-68
2023/08/28 05:51:29;;;;;;;;;;;14.90;85.30;;;;;;4987351;28;19929;-67
2023/08/28 05:53:56;;;;;;;;;;;15.00;85.20;;;;;;4982958;28;19930;-69
2023/08/28 05:56:24;;;;;;;;;;;15.10;85.00;;;;;;4967068;28;19932;-70
2023/08/28 05:58:53;;;;;;;;;;;15.10;85.10;;;;;;4989033;28;19926;-67
2023/08/28 06:01:20;;;;;;;;;;;15.10;85.00;;;;;;4996155;28;19930;-68
2023/08/28 06:03:56;;;;;;;;;;;15.10;84.90;;;;;;4963011;28;19937;-69
2023/08/28 06:06:32;;;;;;;;;;;15.20;84.50;;;;;;4989006;28;19926;-68
2023/08/28 06:09:08;;;;;;;;;;;15.10;84.60;;;;;;5004133;28;19926;-67
2023/08/28 06:11:48;;;;;;;;;;;15.10;84.70;;;;;;4988243;28;19926;-68
2023/08/28 06:14:28;;;;;;;;;;;15.20;84.40;;;;;;4986910;28;19965;-68
2023/08/28 06:17:08;;;;;;;;;;;15.20;84.30;;;;;;5012968;28;19950;-70
2023/08/28 06:19:39;;;;;;;;;;;15.20;84.60;;;;;;5068157;28;20758;-69
2023/08/28 06:22:22;;;;;;;;;;;15.20;84.50;;;;;;5068238;28;19932;-68
2023/08/28 06:24:52;;;;;;;;;;;15.10;84.70;;;;;;4986587;28;20373;-70
2023/08/28 06:27:28;;;;;;;;;;;15.20;84.40;;;;;;4986746;28;20017;-69
2023/08/28 06:30:12;;;;;;;;;;;15.20;84.40;;;;;;4980469;28;20376;-69
2023/08/28 06:32:53;;;;;;;;;;;15.20;84.40;;;;;;4987808;28;19936;-69
2023/08/28 06:35:29;;;;;;;;;;;15.20;84.40;;;;;;4987199;28;19933;-68
2023/08/28 06:38:05;;;;;;;;;;;15.30;84.20;;;;;;4987079;28;20026;-69
2023/08/28 06:40:42;;;;;;;;;;;15.30;84.30;;;;;;4987863;28;19929;-68
2023/08/28 06:43:24;;;;;;;;;;;15.20;84.40;;;;;;4987937;28;19933;-68
2023/08/28 06:46:03;;;;;;;;;;;15.20;84.50;;;;;;4984864;28;19926;-68
2023/08/28 06:48:43;;;;;;;;;;;15.30;84.30;;;;;;4985840;28;19953;-69
2023/08/28 06:51:19;;;;;;;;;;;15.20;84.60;;;;;;4988721;28;20437;-69
2023/08/28 06:53:53;;;;;;;;;;;15.30;84.60;;;;;;4987969;28;19937;-70
2023/08/28 06:56:28;;;;;;;;;;;15.30;84.50;;;;;;4986894;28;20412;-68
2023/08/28 06:59:06;;;;;;;;;;;15.30;84.40;;;;;;4986751;28;19926;-69
2023/08/28 07:01:43;;;;;;;;;;;15.30;84.70;;;;;;4987967;28;19969;-70
2023/08/28 07:04:19;;;;;;;;;;;15.30;84.60;;;;;;4987876;28;19936;-69
2023/08/28 07:06:55;;;;;;;;;;;15.30;84.60;;;;;;4986965;28;19929;-70
2023/08/28 07:09:25;;;;;;;;;;;15.30;84.80;;;;;;4986747;28;19929;-69
2023/08/28 07:11:52;;;;;;;;;;;15.30;84.90;;;;;;4987561;28;20019;-69
2023/08/28 07:14:19;;;;;;;;;;;15.30;84.60;;;;;;4987851;28;20012;-69
2023/08/28 07:16:47;;;;;;;;;;;15.40;84.60;;;;;;5070115;28;19967;-70
2023/08/28 07:19:15;;;;;;;;;;;15.40;84.80;;;;;;5067903;28;20541;-68
2023/08/28 07:21:42;;;;;;;;;;;15.40;84.60;;;;;;5068431;28;19935;-74
2023/08/28 07:24:10;;;;;;;;;;;15.30;84.60;;;;;;5068481;28;19928;-74
2023/08/28 07:26:37;;;;;;;;;;;15.40;84.70;;;;;;5068766;28;19928;-73
2023/08/28 07:29:03;;;;;;;;;;;15.30;84.60;;;;;;5068661;28;20415;-73
2023/08/28 07:31:30;;;;;;;;;;;15.30;84.90;;;;;;5068423;28;20142;-73
2023/08/28 07:34:00;;;;;;;;;;;15.30;84.90;;;;;;5067648;28;20387;-73
2023/08/28 07:36:27;;;;;;;;;;;15.40;84.80;;;;;;5067177;28;20020;-74
2023/08/28 07:38:54;;;;;;;;;;;15.40;84.80;;;;;;5069810;28;19929;-73
2023/08/28 07:41:21;;;;;;;;;;;15.50;84.80;;;;;;5067398;28;19932;-74
2023/08/28 07:43:49;;;;;;;;;;;15.50;84.60;;;;;;5069581;28;19936;-73
2023/08/28 07:46:16;;;;;;;;;;;15.40;84.60;;;;;;5067090;28;19924;-77
2023/08/28 07:48:43;;;;;;;;;;;15.50;84.40;;;;;;5068713;28;20405;-74
2023/08/28 07:51:12;;;;;;;;;;;15.60;84.40;;;;;;5069168;28;19930;-74
2023/08/28 07:53:39;;;;;;;;;;;15.60;84.30;;;;;;5068731;28;20421;-73
2023/08/28 07:56:07;;;;;;;;;;;15.70;83.90;;;;;;5068041;28;19929;-73
2023/08/28 07:58:34;;;;;;;;;;;15.70;83.90;;;;;;5068060;28;22033;-72
2023/08/28 08:01:01;;;;;;;;;;;15.80;83.70;;;;;;5067175;28;20313;-69
2023/08/28 08:03:28;;;;;;;;;;;15.90;83.60;;;;;;5068327;28;19924;-68
2023/08/28 08:05:56;;;;;;;;;;;15.90;83.50;;;;;;5069019;28;19932;-69
2023/08/28 08:08:24;;;;;;;;;;;15.90;83.50;;;;;;5067597;28;19928;-68
2023/08/28 08:10:52;;;;;;;;;;;15.90;83.40;;;;;;5068746;28;19939;-68
2023/08/28 08:13:20;;;;;;;;;;;16.00;83.40;;;;;;5067082;28;20341;-69
2023/08/28 08:15:47;;;;;;;;;;;16.00;82.80;;;;;;5066891;28;19925;-69
2023/08/28 08:18:15;;;;;;;;;;;16.00;83.00;;;;;;5068108;28;19933;-68
2023/08/28 08:20:42;;;;;;;;;;;16.10;82.80;;;;;;5067610;28;20371;-68
2023/08/28 08:23:10;;;;;;;;;;;16.10;83.00;;;;;;5068924;28;19929;-69
2023/08/28 08:25:39;;;;;;;;;;;16.10;82.60;;;;;;5068410;28;19928;-68
2023/08/28 08:28:07;;;;;;;;;;;16.30;82.60;;;;;;5068772;28;19972;-68
2023/08/28 08:30:34;;;;;;;;;;;16.30;82.30;;;;;;5067750;28;19943;-68
2023/08/28 08:33:01;;;;;;;;;;;16.30;82.70;;;;;;5067534;28;19982;-68
2023/08/28 08:35:29;;;;;;;;;;;16.40;82.20;;;;;;5065149;28;19924;-69
2023/08/28 08:37:56;;;;;;;;;;;16.40;82.40;;;;;;5031122;28;19926;-69
2023/08/28 08:40:25;;;;;;;;;;;16.50;82.30;;;;;;4984553;28;19956;-68
2023/08/28 08:42:54;;;;;;;;;;;16.50;82.00;;;;;;4985044;28;19981;-68
2023/08/28 08:45:24;;;;;;;;;;;16.60;82.20;;;;;;4985035;28;19969;-69
2023/08/28 08:47:53;;;;;;;;;;;16.60;81.90;;;;;;4985536;28;19930;-69
2023/08/28 08:50:22;;;;;;;;;;;16.50;81.80;;;;;;4984415;28;20241;-69
2023/08/28 08:52:49;;;;;;;;;;;16.50;82.00;;;;;;4986355;28;20396;-69
2023/08/28 08:55:20;;;;;;;;;;;16.50;81.90;;;;;;4983900;28;19926;-69
2023/08/28 08:57:50;;;;;;;;;;;16.50;81.90;;;;;;4968229;28;20449;-69
2023/08/28 09:00:19;;;;;;;;;;;16.50;82.30;;;;;;4986021;28;19971;-67
2023/08/28 09:02:47;;;;;;;;;;;16.60;82.10;;;;;;4986632;28;20024;-68
2023/08/28 09:05:15;;;;;;;;;;;16.60;82.20;;;;;;4986070;28;20034;-69
2023/08/28 09:07:43;;;;;;;;;;;16.60;82.10;;;;;;4984114;28;20000;-68
2023/08/28 09:10:12;;;;;;;;;;;16.60;82.20;;;;;;4989769;28;19938;-68
2023/08/28 09:12:39;;;;;;;;;;;16.60;82.40;;;;;;5070431;28;20010;-69
2023/08/28 09:15:06;;;;;;;;;;;16.70;82.50;;;;;;5070924;28;19963;-69
2023/08/28 09:17:40;;;;;;;;;;;16.90;82.10;;;;;;5069630;28;19983;-69
2023/08/28 09:20:13;;;;;;;;;;;16.90;81.90;;;;;;5071143;28;20437;-68
2023/08/28 09:22:45;;;;;;;;;;;16.90;81.70;;;;;;5070962;28;19934;-69
2023/08/28 09:25:12;;;;;;;;;;;17.10;81.50;;;;;;5070046;28;19932;-69
2023/08/28 09:27:40;;;;;;;;;;;17.20;81.10;;;;;;5072050;28;20840;-70
2023/08/28 09:30:08;;;;;;;;;;;17.20;80.70;;;;;;5071158;28;19940;-68
2023/08/28 09:32:35;;;;;;;;;;;17.20;80.90;;;;;;5070974;28;19935;-70
2023/08/28 09:35:07;;;;;;;;;;;17.10;80.60;;;;;;5070484;28;20311;-69
2023/08/28 09:37:35;;;;;;;;;;;17.20;80.60;;;;;;5070023;28;19928;-70
2023/08/28 09:40:02;;;;;;;;;;;17.20;80.30;;;;;;5069487;28;19935;-69
2023/08/28 09:42:29;;;;;;;;;;;17.20;80.40;;;;;;5070022;28;20011;-70
2023/08/28 09:44:57;;;;;;;;;;;17.30;80.40;;;;;;5071031;28;19932;-70
2023/08/28 09:47:24;;;;;;;;;;;17.20;80.20;;;;;;5068834;28;19932;-70
2023/08/28 09:49:52;;;;;;;;;;;17.10;80.20;;;;;;5070186;28;19924;-70
2023/08/28 09:52:25;;;;;;;;;;;17.10;80.70;;;;;;5071127;28;20486;-70
2023/08/28 09:55:01;;;;;;;;;;;17.10;80.50;;;;;;5070469;28;19935;-70
2023/08/28 09:57:28;;;;;;;;;;;17.10;80.60;;;;;;5070989;28;19955;-69
2023/08/28 09:59:55;;;;;;;;;;;17.10;80.60;;;;;;5070853;28;20001;-70
2023/08/28 10:02:23;;;;;;;;;;;17.10;80.60;;;;;;4991257;28;20774;-70
2023/08/28 10:04:52;;;;;;;;;;;17.10;80.80;;;;;;4968201;28;19930;-70
2023/08/28 10:07:22;;;;;;;;;;;17.10;80.80;;;;;;4980377;28;20002;-71
2023/08/28 10:09:51;;;;;;;;;;;17.10;80.50;;;;;;4987360;28;20570;-70
2023/08/28 10:12:20;;;;;;;;;;;17.10;80.70;;;;;;4988881;28;19929;-68
2023/08/28 10:14:49;;;;;;;;;;;17.10;80.50;;;;;;4987426;28;19929;-69
2023/08/28 10:17:19;;;;;;;;;;;17.30;80.40;;;;;;4988815;28;19958;-69
2023/08/28 10:19:48;;;;;;;;;;;17.40;80.20;;;;;;4986740;28;19926;-70
2023/08/28 10:22:16;;;;;;;;;;;17.40;80.00;;;;;;5008510;28;19925;-69
2023/08/28 10:24:43;;;;;;;;;;;17.50;80.00;;;;;;5036409;28;19965;-71
2023/08/28 10:27:14;;;;;;;;;;;17.60;79.60;;;;;;4968412;28;20408;-69
2023/08/28 10:29:41;;;;;;;;;;;17.60;79.90;;;;;;4967504;28;20385;-70
2023/08/28 10:32:09;;;;;;;;;;;17.80;79.80;;;;;;4969393;28;20277;-71
2023/08/28 10:34:37;;;;;;;;;;;17.90;79.30;;;;;;4968326;28;19926;-71
2023/08/28 10:37:05;;;;;;;;;;;18.10;79.30;;;;;;4967721;28;20024;-71
2023/08/28 10:39:33;;;;;;;;;;;18.10;78.40;;;;;;4969000;28;19938;-69
2023/08/28 10:42:00;;;;;;;;;;;18.20;77.60;;;;;;4967529;28;19926;-71
2023/08/28 10:44:29;;;;;;;;;;;18.40;76.80;;;;;;4970054;28;19926;-69
2023/08/28 10:46:56;;;;;;;;;;;18.50;77.00;;;;;;4967890;28;19957;-71
2023/08/28 10:49:24;;;;;;;;;;;18.60;76.80;;;;;;4968138;28;19930;-68
2023/08/28 10:52:00;;;;;;;;;;;18.60;76.80;;;;;;4968420;28;19948;-70
2023/08/28 10:54:36;;;;;;;;;;;18.70;76.70;;;;;;4968233;28;19933;-70
2023/08/28 10:57:06;;;;;;;;;;;18.70;76.70;;;;;;4968004;28;19929;-69
2023/08/28 10:59:44;;;;;;;;;;;18.70;76.00;;;;;;4969675;28;19934;-69
2023/08/28 11:02:11;;;;;;;;;;;18.80;75.80;;;;;;4978587;28;19932;-70
2023/08/28 11:04:39;;;;;;;;;;;19.00;75.20;;;;;;4985496;28;19930;-70
2023/08/28 11:07:07;;;;;;;;;;;19.10;74.30;;;;;;4987219;28;19951;-70
2023/08/28 11:09:34;;;;;;;;;;;19.10;73.90;;;;;;4985337;28;19937;-69
2023/08/28 11:12:19;;;;;;;;;;;19.20;73.90;;;;;;4988328;28;19975;-70
2023/08/28 11:14:59;;;;;;;;;;;19.30;73.20;;;;;;4985639;28;19932;-69
2023/08/28 11:17:26;;;;;;;;;;;19.40;73.00;;;;;;4961577;28;20266;-70
2023/08/28 11:20:08;;;;;;;;;;;19.40;73.10;;;;;;4980240;28;20058;-70
2023/08/28 11:22:36;;;;;;;;;;;19.40;73.60;;;;;;4984816;28;19965;-68
2023/08/28 11:25:07;;;;;;;;;;;19.40;73.50;;;;;;4987390;28;19937;-70
2023/08/28 11:27:35;;;;;;;;;;;19.40;73.40;;;;;;4981991;28;20292;-70
2023/08/28 11:30:07;;;;;;;;;;;19.40;73.20;;;;;;4983851;28;20355;-69
2023/08/28 11:32:34;;;;;;;;;;;19.40;73.20;;;;;;4986028;28;19987;-70
2023/08/28 11:35:04;;;;;;;;;;;19.40;72.90;;;;;;4985570;28;19930;-71
2023/08/28 11:37:32;;;;;;;;;;;19.50;72.20;;;;;;4987058;28;19929;-69
2023/08/28 11:40:00;;;;;;;;;;;19.60;72.10;;;;;;4987762;28;19940;-69
2023/08/28 11:42:28;;;;;;;;;;;19.70;71.90;;;;;;4987704;28;19933;-66
2023/08/28 11:44:55;;;;;;;;;;;19.80;71.50;;;;;;4985247;28;19930;-65
2023/08/28 11:47:28;;;;;;;;;;;19.80;70.10;;;;;;4986874;28;20377;-66
2023/08/28 11:49:55;;;;;;;;;;;19.90;70.10;;;;;;4986792;28;20024;-67
2023/08/28 11:52:23;;;;;;;;;;;20.00;69.20;;;;;;4986578;28;19926;-66
2023/08/28 11:54:51;;;;;;;;;;;20.10;69.10;;;;;;4988944;28;19925;-66
2023/08/28 11:57:19;;;;;;;;;;;20.10;69.10;;;;;;4987755;28;19926;-67
2023/08/28 11:59:48;;;;;;;;;;;20.00;68.40;;;;;;4987950;28;19930;-67
2023/08/28 12:02:16;;;;;;;;;;;20.10;67.30;;;;;;4987077;28;19926;-67
2023/08/28 12:04:49;;;;;;;;;;;20.20;67.30;;;;;;4985095;28;19930;-67
2023/08/28 12:07:19;;;;;;;;;;;20.20;65.50;;;;;;4986478;28;20369;-66
2023/08/28 12:09:47;;;;;;;;;;;20.20;65.90;;;;;;4987222;28;19986;-67
2023/08/28 12:12:15;;;;;;;;;;;20.30;66.90;;;;;;4986577;28;19934;-67
2023/08/28 12:14:44;;;;;;;;;;;20.30;66.30;;;;;;4986889;28;19929;-66
2023/08/28 12:17:15;;;;;;;;;;;20.30;66.60;;;;;;4986276;28;20381;-67
2023/08/28 12:19:42;;;;;;;;;;;20.40;66.00;;;;;;4986239;28;19940;-67
2023/08/28 12:22:12;;;;;;;;;;;20.50;64.90;;;;;;4985990;28;19934;-67
2023/08/28 12:24:39;;;;;;;;;;;20.50;64.80;;;;;;4986472;28;19930;-66
2023/08/28 12:27:07;;;;;;;;;;;20.60;64.30;;;;;;4986252;28;19934;-67
2023/08/28 12:29:35;;;;;;;;;;;20.60;64.60;;;;;;5067812;28;19935;-67
2023/08/28 12:32:05;;;;;;;;;;;20.60;64.50;;;;;;5066307;28;19929;-67
2023/08/28 12:34:33;;;;;;;;;;;20.60;62.60;;;;;;5065913;28;19931;-67
2023/08/28 12:37:04;;;;;;;;;;;20.70;63.20;;;;;;5067691;28;19929;-67
2023/08/28 12:39:33;;;;;;;;;;;20.70;63.10;;;;;;5067064;28;20318;-67
2023/08/28 12:42:01;;;;;;;;;;;20.80;62.70;;;;;;5067279;28;20050;-67
2023/08/28 12:44:29;;;;;;;;;;;20.90;62.50;;;;;;5068967;28;19928;-67
2023/08/28 12:46:57;;;;;;;;;;;21.10;62.40;;;;;;5070366;28;19964;-67
2023/08/28 12:49:24;;;;;;;;;;;21.00;61.90;;;;;;5071657;28;19928;-67
2023/08/28 12:51:51;;;;;;;;;;;21.00;62.40;;;;;;5072479;28;19924;-70
2023/08/28 12:54:20;;;;;;;;;;;20.80;62.00;;;;;;5069604;28;19925;-70
2023/08/28 12:56:49;;;;;;;;;;;20.80;61.60;;;;;;5071649;28;20384;-70
2023/08/28 12:59:16;;;;;;;;;;;20.80;61.90;;;;;;5070608;28;20003;-70
2023/08/28 13:01:44;;;;;;;;;;;20.70;62.10;;;;;;5070170;28;20364;-69
2023/08/28 13:04:11;;;;;;;;;;;20.80;61.90;;;;;;5069496;28;19955;-71
2023/08/28 13:06:38;;;;;;;;;;;20.80;60.90;;;;;;5071020;28;19929;-71
2023/08/28 13:09:07;;;;;;;;;;;20.80;60.30;;;;;;5071229;28;19928;-71
2023/08/28 13:11:34;;;;;;;;;;;20.80;60.70;;;;;;5070550;28;20352;-71
2023/08/28 13:14:03;;;;;;;;;;;20.80;60.90;;;;;;5071492;28;19928;-69
2023/08/28 13:16:30;;;;;;;;;;;20.70;60.60;;;;;;5070996;28;19924;-70
2023/08/28 13:18:59;;;;;;;;;;;20.70;60.60;;;;;;5072308;28;19978;-68
2023/08/28 13:21:26;;;;;;;;;;;20.60;60.10;;;;;;5069723;28;19932;-69
2023/08/28 13:23:54;;;;;;;;;;;20.60;60.80;;;;;;5070958;28;19932;-71
2023/08/28 13:26:23;;;;;;;;;;;20.60;60.90;;;;;;5071387;28;19947;-70
2023/08/28 13:28:51;;;;;;;;;;;20.60;61.30;;;;;;5070481;28;19928;-68
2023/08/28 13:31:21;;;;;;;;;;;20.50;60.90;;;;;;5070956;28;19931;-72
2023/08/28 13:33:52;;;;;;;;;;;20.50;60.80;;;;;;5069758;28;20386;-69
2023/08/28 13:36:19;;;;;;;;;;;20.60;61.30;;;;;;5070295;28;19939;-70
2023/08/28 13:38:48;;;;;;;;;;;20.60;61.50;;;;;;5070807;28;20338;-70
2023/08/28 13:41:18;;;;;;;;;;;20.60;60.70;;;;;;5070972;28;20052;-70
2023/08/28 13:43:45;;;;;;;;;;;20.60;61.00;;;;;;5069808;28;20006;-70
2023/08/28 13:46:12;;;;;;;;;;;20.70;61.20;;;;;;5071002;28;20479;-70
2023/08/28 13:48:41;;;;;;;;;;;20.60;61.30;;;;;;5070396;28;19939;-69
2023/08/28 13:51:08;;;;;;;;;;;20.60;60.30;;;;;;4994036;28;20292;-69
2023/08/28 13:53:35;;;;;;;;;;;20.60;60.50;;;;;;4987239;28;20284;-70
2023/08/28 13:56:04;;;;;;;;;;;20.60;60.60;;;;;;4986312;28;19966;-69
2023/08/28 13:58:31;;;;;;;;;;;20.60;61.10;;;;;;4988291;28;19936;-70
2023/08/28 14:00:59;;;;;;;;;;;20.60;61.80;;;;;;4988792;28;19933;-70
2023/08/28 14:03:27;;;;;;;;;;;20.60;62.60;;;;;;4986485;28;19930;-70
2023/08/28 14:05:57;;;;;;;;;;;20.60;62.00;;;;;;4990307;28;19926;-70
2023/08/28 14:08:24;;;;;;;;;;;20.70;62.50;;;;;;4993247;28;19933;-70
2023/08/28 14:10:53;;;;;;;;;;;20.60;62.80;;;;;;4988387;28;20008;-71
2023/08/28 14:13:20;;;;;;;;;;;20.60;62.60;;;;;;4988491;28;19973;-70
2023/08/28 14:15:48;;;;;;;;;;;20.60;62.40;;;;;;4988726;28;19933;-70
2023/08/28 14:18:19;;;;;;;;;;;20.60;61.50;;;;;;4988385;28;20414;-71
2023/08/28 14:20:51;;;;;;;;;;;20.60;61.20;;;;;;4986970;28;19933;-71
2023/08/28 14:23:20;;;;;;;;;;;20.50;60.80;;;;;;4988198;28;19933;-71
2023/08/28 14:25:47;;;;;;;;;;;20.50;62.10;;;;;;4986825;28;19979;-71